sensor_id;sensor_type;location;lat;lon;timestamp;pressure;altitude;pressure_sealevel;temperature;humidity
75617;BME280;64200;55.426;37.758;2022-12-07T00:03:16;100487.06;;;-9.30;51.28
75617;BME280;64200;55.426;37.758;2022-12-07T00:08:16;100505.34;;;-9.27;51.20
75617;BME280;64200;55.426;37.758;2022-12-07T00:13:17;100509.31;;;-9.33;51.61
75617;BME280;64200;55.426;37.758;2022-12-07T00:18:17;100490.59;;;-9.29;50.86
75617;BME280;64200;55.426;37.758;2022-12-07T00:23:18;100497.84;;;-9.39;51.07
75617;BME280;64200;55.426;37.758;2022-12-07T00:28:18;100494.03;;;-9.38;51.60
75617;BME280;64200;55.426;37.758;2022-12-07T00:33:19;100492.56;;;-9.44;51.38
75617;BME280;64200;55.426;37.758;2022-12-07T00:38:20;100494.81;;;-9.46;51.82
75617;BME280;64200;55.426;37.758;2022-12-07T00:43:20;100509.72;;;-9.48;52.03
75617;BME280;64200;55.426;37.758;2022-12-07T00:48:21;100514.00;;;-9.47;52.11
75617;BME280;64200;55.426;37.758;2022-12-07T00:53:22;100501.41;;;-9.52;51.76
75617;BME280;64200;55.426;37.758;2022-12-07T00:58:23;100504.56;;;-9.59;52.25
75617;BME280;64200;55.426;37.758;2022-12-07T01:03:24;100498.88;;;-9.57;52.30
75617;BME280;64200;55.426;37.758;2022-12-07T01:08:26;100503.28;;;-9.61;52.89
75617;BME280;64200;55.426;37.758;2022-12-07T01:13:27;100498.06;;;-9.58;51.76
75617;BME280;64200;55.426;37.758;2022-12-07T01:18:29;100500.09;;;-9.63;52.53
75617;BME280;64200;55.426;37.758;2022-12-07T01:23:31;100504.03;;;-9.69;52.98
75617;BME280;64200;55.426;37.758;2022-12-07T01:28:32;100490.03;;;-9.72;53.18
75617;BME280;64200;55.426;37.758;2022-12-07T01:33:35;100489.94;;;-9.66;52.56
75617;BME280;64200;55.426;37.758;2022-12-07T01:38:36;100487.34;;;-9.72;53.10
75617;BME280;64200;55.426;37.758;2022-12-07T01:43:37;100479.75;;;-9.69;52.51
75617;BME280;64200;55.426;37.758;2022-12-07T01:48:57;100473.06;;;-9.72;53.56
75617;BME280;64200;55.426;37.758;2022-12-07T01:53:58;100472.38;;;-9.78;53.43
75617;BME280;64200;55.426;37.758;2022-12-07T01:58:59;100480.00;;;-9.80;53.33
75617;BME280;64200;55.426;37.758;2022-12-07T02:04:00;100474.91;;;-9.81;53.78
75617;BME280;64200;55.426;37.758;2022-12-07T02:09:01;100471.69;;;-9.83;54.02
75617;BME280;64200;55.426;37.758;2022-12-07T02:14:02;100459.50;;;-9.81;53.67
75617;BME280;64200;55.426;37.758;2022-12-07T02:19:26;100456.91;;;-9.86;54.39
75617;BME280;64200;55.426;37.758;2022-12-07T02:29:53;100453.13;;;-9.85;53.93
75617;BME280;64200;55.426;37.758;2022-12-07T02:35:07;100457.53;;;-9.89;54.51
75617;BME280;64200;55.426;37.758;2022-12-07T02:40:11;100455.44;;;-9.92;54.61
75617;BME280;64200;55.426;37.758;2022-12-07T02:45:17;100457.22;;;-9.88;54.73
75617;BME280;64200;55.426;37.758;2022-12-07T02:50:22;100451.34;;;-9.90;54.25
75617;BME280;64200;55.426;37.758;2022-12-07T02:55:33;100451.19;;;-9.93;54.95
75617;BME280;64200;55.426;37.758;2022-12-07T03:00:46;100455.28;;;-9.96;55.25
75617;BME280;64200;55.426;37.758;2022-12-07T03:06:09;100458.47;;;-9.94;55.34
75617;BME280;64200;55.426;37.758;2022-12-07T03:16:52;100434.97;;;-9.93;55.86
75617;BME280;64200;55.426;37.758;2022-12-07T03:21:57;100432.84;;;-10.05;56.32
75617;BME280;64200;55.426;37.758;2022-12-07T03:27:06;100432.03;;;-10.06;56.65
75617;BME280;64200;55.426;37.758;2022-12-07T03:32:18;100442.66;;;-10.09;57.18
75617;BME280;64200;55.426;37.758;2022-12-07T03:37:26;100465.94;;;-10.13;56.50
75617;BME280;64200;55.426;37.758;2022-12-07T03:42:30;100440.38;;;-10.16;56.92
75617;BME280;64200;55.426;37.758;2022-12-07T03:47:37;100432.22;;;-10.25;58.07
75617;BME280;64200;55.426;37.758;2022-12-07T03:52:45;100433.75;;;-10.32;58.75
75617;BME280;64200;55.426;37.758;2022-12-07T03:57:49;100439.25;;;-10.46;59.24
75617;BME280;64200;55.426;37.758;2022-12-07T04:02:54;100436.94;;;-10.53;59.33
75617;BME280;64200;55.426;37.758;2022-12-07T04:07:55;100431.25;;;-10.51;60.48
75617;BME280;64200;55.426;37.758;2022-12-07T04:12:55;100434.38;;;-10.58;61.22
75617;BME280;64200;55.426;37.758;2022-12-07T04:17:56;100429.53;;;-10.70;60.34
75617;BME280;64200;55.426;37.758;2022-12-07T04:22:56;100429.00;;;-10.72;61.23
75617;BME280;64200;55.426;37.758;2022-12-07T04:27:57;100425.34;;;-10.76;61.81
75617;BME280;64200;55.426;37.758;2022-12-07T04:32:57;100429.13;;;-10.77;62.23
75617;BME280;64200;55.426;37.758;2022-12-07T04:37:58;100420.97;;;-10.86;62.96
75617;BME280;64200;55.426;37.758;2022-12-07T04:42:58;100422.47;;;-10.93;62.57
75617;BME280;64200;55.426;37.758;2022-12-07T04:47:59;100424.19;;;-10.98;62.30
75617;BME280;64200;55.426;37.758;2022-12-07T04:52:59;100430.09;;;-11.09;63.99
75617;BME280;64200;55.426;37.758;2022-12-07T04:58:00;100426.09;;;-11.12;64.95
75617;BME280;64200;55.426;37.758;2022-12-07T05:03:00;100421.31;;;-11.15;64.14
75617;BME280;64200;55.426;37.758;2022-12-07T05:08:01;100439.06;;;-11.42;66.38
75617;BME280;64200;55.426;37.758;2022-12-07T05:13:01;100419.84;;;-11.35;65.44
75617;BME280;64200;55.426;37.758;2022-12-07T05:18:02;100422.53;;;-11.35;66.30
75617;BME280;64200;55.426;37.758;2022-12-07T05:23:03;100421.72;;;-11.36;66.26
75617;BME280;64200;55.426;37.758;2022-12-07T05:28:05;100430.19;;;-11.42;66.90
75617;BME280;64200;55.426;37.758;2022-12-07T05:33:05;100416.22;;;-11.44;66.97
75617;BME280;64200;55.426;37.758;2022-12-07T05:38:06;100427.00;;;-11.44;67.74
75617;BME280;64200;55.426;37.758;2022-12-07T05:43:06;100429.88;;;-11.55;68.07
75617;BME280;64200;55.426;37.758;2022-12-07T05:48:07;100434.75;;;-11.57;68.50
75617;BME280;64200;55.426;37.758;2022-12-07T05:53:08;100422.50;;;-11.49;68.19
75617;BME280;64200;55.426;37.758;2022-12-07T05:58:09;100426.09;;;-11.54;68.36
75617;BME280;64200;55.426;37.758;2022-12-07T06:03:28;100439.84;;;-11.55;68.67
75617;BME280;64200;55.426;37.758;2022-12-07T06:08:28;100435.56;;;-11.56;68.64
75617;BME280;64200;55.426;37.758;2022-12-07T06:13:29;100432.66;;;-11.46;68.57
75617;BME280;64200;55.426;37.758;2022-12-07T06:18:29;100428.97;;;-11.50;70.00
75617;BME280;64200;55.426;37.758;2022-12-07T06:23:30;100418.09;;;-11.31;69.11
75617;BME280;64200;55.426;37.758;2022-12-07T06:28:30;100430.66;;;-10.99;68.90
75617;BME280;64200;55.426;37.758;2022-12-07T06:33:31;100424.88;;;-10.55;67.25
75617;BME280;64200;55.426;37.758;2022-12-07T06:38:31;100420.50;;;-10.20;66.52
75617;BME280;64200;55.426;37.758;2022-12-07T06:43:32;100417.34;;;-9.91;65.62
75617;BME280;64200;55.426;37.758;2022-12-07T06:48:33;100411.53;;;-9.44;64.44
75617;BME280;64200;55.426;37.758;2022-12-07T06:53:34;100423.38;;;-9.22;62.97
75617;BME280;64200;55.426;37.758;2022-12-07T06:58:35;100424.69;;;-9.11;62.74
75617;BME280;64200;55.426;37.758;2022-12-07T07:03:35;100430.78;;;-8.88;61.46
75617;BME280;64200;55.426;37.758;2022-12-07T07:08:37;100422.38;;;-8.60;60.47
75617;BME280;64200;55.426;37.758;2022-12-07T07:13:38;100434.13;;;-8.12;58.85
75617;BME280;64200;55.426;37.758;2022-12-07T07:18:39;100422.63;;;-7.44;58.65
75617;BME280;64200;55.426;37.758;2022-12-07T07:23:39;100415.88;;;-7.29;57.63
75617;BME280;64200;55.426;37.758;2022-12-07T07:28:40;100423.50;;;-6.93;54.96
75617;BME280;64200;55.426;37.758;2022-12-07T07:33:40;100406.97;;;-6.79;54.46
75617;BME280;64200;55.426;37.758;2022-12-07T07:38:41;100424.84;;;-5.44;53.15
75617;BME280;64200;55.426;37.758;2022-12-07T07:43:41;100431.84;;;-4.81;50.64
75617;BME280;64200;55.426;37.758;2022-12-07T07:48:42;100427.66;;;-4.79;49.93
75617;BME280;64200;55.426;37.758;2022-12-07T07:53:42;100427.44;;;-4.86;47.96
75617;BME280;64200;55.426;37.758;2022-12-07T07:58:43;100420.53;;;-4.83;46.85
75617;BME280;64200;55.426;37.758;2022-12-07T08:03:43;100431.69;;;-4.07;47.31
75617;BME280;64200;55.426;37.758;2022-12-07T08:08:44;100403.69;;;-3.44;46.72
75617;BME280;64200;55.426;37.758;2022-12-07T08:13:45;100403.50;;;-3.03;43.49
75617;BME280;64200;55.426;37.758;2022-12-07T08:18:47;100406.16;;;-2.13;44.65
75617;BME280;64200;55.426;37.758;2022-12-07T08:23:47;100421.34;;;-2.35;41.34
75617;BME280;64200;55.426;37.758;2022-12-07T08:28:48;100451.13;;;-2.10;38.71
75617;BME280;64200;55.426;37.758;2022-12-07T08:33:49;100406.47;;;-1.98;39.67
75617;BME280;64200;55.426;37.758;2022-12-07T08:38:50;100400.41;;;-1.42;38.08
75617;BME280;64200;55.426;37.758;2022-12-07T08:43:51;100383.97;;;-2.31;39.10
75617;BME280;64200;55.426;37.758;2022-12-07T08:53:52;100388.63;;;-0.35;37.89
75617;BME280;64200;55.426;37.758;2022-12-07T08:58:54;100381.84;;;-0.45;35.31
75617;BME280;64200;55.426;37.758;2022-12-07T09:03:55;100371.72;;;0.34;36.02
75617;BME280;64200;55.426;37.758;2022-12-07T09:08:58;100368.31;;;-0.30;34.59
75617;BME280;64200;55.426;37.758;2022-12-07T09:14:00;100372.28;;;1.14;32.92
75617;BME280;64200;55.426;37.758;2022-12-07T09:19:01;100361.44;;;0.73;32.33
75617;BME280;64200;55.426;37.758;2022-12-07T09:24:01;100372.53;;;1.64;33.24
75617;BME280;64200;55.426;37.758;2022-12-07T09:29:03;100355.78;;;2.27;30.97
75617;BME280;64200;55.426;37.758;2022-12-07T09:34:03;100361.28;;;1.10;32.13
75617;BME280;64200;55.426;37.758;2022-12-07T09:39:06;100345.38;;;0.78;33.49
75617;BME280;64200;55.426;37.758;2022-12-07T09:44:10;100333.75;;;2.56;30.93
75617;BME280;64200;55.426;37.758;2022-12-07T09:49:17;100334.44;;;4.06;27.76
75617;BME280;64200;55.426;37.758;2022-12-07T09:54:18;100334.41;;;4.58;26.97
75617;BME280;64200;55.426;37.758;2022-12-07T09:59:19;100345.03;;;4.11;28.13
75617;BME280;64200;55.426;37.758;2022-12-07T10:04:23;100329.63;;;5.39;28.73
75617;BME280;64200;55.426;37.758;2022-12-07T10:09:24;100340.28;;;5.75;26.61
75617;BME280;64200;55.426;37.758;2022-12-07T10:14:29;100322.25;;;3.19;28.52
75617;BME280;64200;55.426;37.758;2022-12-07T10:19:31;100323.28;;;4.20;27.92
75617;BME280;64200;55.426;37.758;2022-12-07T10:24:36;100338.06;;;2.86;27.59
75617;BME280;64200;55.426;37.758;2022-12-07T10:29:39;100347.94;;;2.40;28.23
75617;BME280;64200;55.426;37.758;2022-12-07T10:34:40;100339.59;;;2.97;29.87
75617;BME280;64200;55.426;37.758;2022-12-07T10:39:52;100327.06;;;1.96;29.00
75617;BME280;64200;55.426;37.758;2022-12-07T11:01:04;100290.44;;;1.70;30.04
75617;BME280;64200;55.426;37.758;2022-12-07T11:22:01;100289.56;;;0.63;32.26
75617;BME280;64200;55.426;37.758;2022-12-07T11:37:59;100281.03;;;0.20;32.84
75617;BME280;64200;55.426;37.758;2022-12-07T11:48:20;100265.72;;;0.19;33.74
75617;BME280;64200;55.426;37.758;2022-12-07T11:53:27;100251.84;;;-0.03;33.05
75617;BME280;64200;55.426;37.758;2022-12-07T12:20:01;100226.50;;;-3.40;40.37
75617;BME280;64200;55.426;37.758;2022-12-07T12:25:06;100267.75;;;-3.93;41.79
75617;BME280;64200;55.426;37.758;2022-12-07T12:30:37;100208.69;;;-3.54;41.32
75617;BME280;64200;55.426;37.758;2022-12-07T12:35:38;100216.84;;;-4.37;43.22
75617;BME280;64200;55.426;37.758;2022-12-07T12:40:39;100187.53;;;-5.97;46.91
75617;BME280;64200;55.426;37.758;2022-12-07T12:45:40;100209.59;;;-6.11;47.85
75617;BME280;64200;55.426;37.758;2022-12-07T12:50:41;100213.81;;;-7.48;51.05
75617;BME280;64200;55.426;37.758;2022-12-07T13:00:41;100223.50;;;-8.27;54.48
75617;BME280;64200;55.426;37.758;2022-12-07T13:05:42;100214.59;;;-8.67;56.21
75617;BME280;64200;55.426;37.758;2022-12-07T13:10:45;100212.34;;;-8.56;55.69
75617;BME280;64200;55.426;37.758;2022-12-07T13:15:48;100195.06;;;-8.81;56.87
75617;BME280;64200;55.426;37.758;2022-12-07T13:31:37;100214.66;;;-9.02;57.47
75617;BME280;64200;55.426;37.758;2022-12-07T13:36:39;100183.38;;;-9.11;57.54
75617;BME280;64200;55.426;37.758;2022-12-07T13:41:43;100168.28;;;-9.21;57.37
75617;BME280;64200;55.426;37.758;2022-12-07T13:57:18;100191.81;;;-9.30;59.25
75617;BME280;64200;55.426;37.758;2022-12-07T14:02:31;100168.16;;;-9.42;59.89
75617;BME280;64200;55.426;37.758;2022-12-07T14:07:33;100178.94;;;-9.51;60.23
75617;BME280;64200;55.426;37.758;2022-12-07T14:12:36;100165.59;;;-9.47;59.94
75617;BME280;64200;55.426;37.758;2022-12-07T14:17:53;100164.34;;;-9.41;59.42
75617;BME280;64200;55.426;37.758;2022-12-07T14:22:55;100166.22;;;-9.59;60.70
75617;BME280;64200;55.426;37.758;2022-12-07T14:28:00;100163.22;;;-9.66;61.14
75617;BME280;64200;55.426;37.758;2022-12-07T14:33:05;100159.88;;;-9.63;60.85
75617;BME280;64200;55.426;37.758;2022-12-07T14:38:05;100144.16;;;-9.70;61.44
75617;BME280;64200;55.426;37.758;2022-12-07T14:43:12;100164.94;;;-9.88;62.33
75617;BME280;64200;55.426;37.758;2022-12-07T14:48:15;100165.75;;;-9.79;61.45
75617;BME280;64200;55.426;37.758;2022-12-07T14:53:17;100146.38;;;-9.81;62.12
75617;BME280;64200;55.426;37.758;2022-12-07T14:58:18;100163.34;;;-9.80;62.25
75617;BME280;64200;55.426;37.758;2022-12-07T15:03:20;100141.28;;;-9.82;63.08
75617;BME280;64200;55.426;37.758;2022-12-07T15:08:21;100140.63;;;-10.06;63.42
75617;BME280;64200;55.426;37.758;2022-12-07T15:13:21;100135.72;;;-9.86;63.37
75617;BME280;64200;55.426;37.758;2022-12-07T15:18:41;100146.69;;;-9.82;63.45
75617;BME280;64200;55.426;37.758;2022-12-07T15:23:41;100156.38;;;-9.81;63.37
75617;BME280;64200;55.426;37.758;2022-12-07T15:28:42;100149.22;;;-9.86;64.04
75617;BME280;64200;55.426;37.758;2022-12-07T15:33:43;100125.09;;;-9.82;63.91
75617;BME280;64200;55.426;37.758;2022-12-07T15:38:44;100117.13;;;-9.96;63.98
75617;BME280;64200;55.426;37.758;2022-12-07T15:43:45;100103.50;;;-10.00;64.91
75617;BME280;64200;55.426;37.758;2022-12-07T15:49:07;100140.19;;;-9.90;65.47
75617;BME280;64200;55.426;37.758;2022-12-07T15:54:31;100126.06;;;-9.87;64.54
75617;BME280;64200;55.426;37.758;2022-12-07T15:59:33;100148.09;;;-10.02;65.64
75617;BME280;64200;55.426;37.758;2022-12-07T16:04:34;100085.69;;;-10.10;65.07
75617;BME280;64200;55.426;37.758;2022-12-07T16:09:35;100101.75;;;-9.96;65.92
75617;BME280;64200;55.426;37.758;2022-12-07T16:14:36;100086.19;;;-10.08;66.01
75617;BME280;64200;55.426;37.758;2022-12-07T16:19:37;100116.03;;;-9.95;65.42
75617;BME280;64200;55.426;37.758;2022-12-07T16:24:37;100106.38;;;-10.05;65.72
75617;BME280;64200;55.426;37.758;2022-12-07T16:29:38;100091.28;;;-9.97;65.80
75617;BME280;64200;55.426;37.758;2022-12-07T16:34:39;100106.34;;;-9.96;66.18
75617;BME280;64200;55.426;37.758;2022-12-07T16:39:40;100074.28;;;-10.15;66.29
75617;BME280;64200;55.426;37.758;2022-12-07T16:44:40;100131.25;;;-10.17;66.26
75617;BME280;64200;55.426;37.758;2022-12-07T16:49:42;100084.13;;;-10.11;66.67
75617;BME280;64200;55.426;37.758;2022-12-07T16:54:43;100077.78;;;-10.06;66.21
75617;BME280;64200;55.426;37.758;2022-12-07T16:59:44;100094.13;;;-9.94;65.48
75617;BME280;64200;55.426;37.758;2022-12-07T17:04:45;100081.91;;;-10.00;65.75
75617;BME280;64200;55.426;37.758;2022-12-07T17:09:46;100067.63;;;-10.00;65.44
75617;BME280;64200;55.426;37.758;2022-12-07T17:14:46;100091.41;;;-10.02;66.41
75617;BME280;64200;55.426;37.758;2022-12-07T17:20:06;100050.94;;;-10.02;66.30
75617;BME280;64200;55.426;37.758;2022-12-07T17:25:06;100078.44;;;-10.00;66.25
75617;BME280;64200;55.426;37.758;2022-12-07T17:30:08;100050.63;;;-10.01;66.45
75617;BME280;64200;55.426;37.758;2022-12-07T17:35:08;100053.97;;;-9.95;66.28
75617;BME280;64200;55.426;37.758;2022-12-07T17:40:09;100080.16;;;-10.04;66.63
75617;BME280;64200;55.426;37.758;2022-12-07T17:45:10;100033.66;;;-10.01;66.17
75617;BME280;64200;55.426;37.758;2022-12-07T17:50:11;100049.06;;;-10.11;66.49
75617;BME280;64200;55.426;37.758;2022-12-07T17:55:12;100081.25;;;-10.06;67.05
75617;BME280;64200;55.426;37.758;2022-12-07T18:00:13;100052.41;;;-10.05;66.99
75617;BME280;64200;55.426;37.758;2022-12-07T18:05:14;100066.66;;;-10.04;66.72
75617;BME280;64200;55.426;37.758;2022-12-07T18:10:15;100069.69;;;-10.15;67.47
75617;BME280;64200;55.426;37.758;2022-12-07T18:15:16;100059.22;;;-10.16;67.69
75617;BME280;64200;55.426;37.758;2022-12-07T18:20:16;100032.88;;;-10.11;67.70
75617;BME280;64200;55.426;37.758;2022-12-07T18:25:17;100029.84;;;-10.18;68.15
75617;BME280;64200;55.426;37.758;2022-12-07T18:30:18;100027.16;;;-10.18;68.02
75617;BME280;64200;55.426;37.758;2022-12-07T18:35:19;100040.31;;;-10.16;67.54
75617;BME280;64200;55.426;37.758;2022-12-07T18:40:19;100006.69;;;-10.19;67.59
75617;BME280;64200;55.426;37.758;2022-12-07T18:45:21;100022.22;;;-10.25;67.54
75617;BME280;64200;55.426;37.758;2022-12-07T18:50:21;100028.56;;;-10.20;68.14
75617;BME280;64200;55.426;37.758;2022-12-07T18:55:22;100026.19;;;-10.22;68.51
75617;BME280;64200;55.426;37.758;2022-12-07T19:00:24;100025.25;;;-10.17;67.99
75617;BME280;64200;55.426;37.758;2022-12-07T19:05:25;100006.34;;;-10.17;67.89
75617;BME280;64200;55.426;37.758;2022-12-07T19:10:25;100000.31;;;-10.23;67.85
75617;BME280;64200;55.426;37.758;2022-12-07T19:15:26;100006.22;;;-10.30;68.63
75617;BME280;64200;55.426;37.758;2022-12-07T19:20:26;100004.28;;;-10.29;68.92
75617;BME280;64200;55.426;37.758;2022-12-07T19:25:27;99967.03;;;-10.27;68.35
75617;BME280;64200;55.426;37.758;2022-12-07T19:30:28;99972.56;;;-10.32;68.01
75617;BME280;64200;55.426;37.758;2022-12-07T19:35:28;99971.63;;;-10.36;68.23
75617;BME280;64200;55.426;37.758;2022-12-07T19:40:29;99984.63;;;-10.30;68.79
75617;BME280;64200;55.426;37.758;2022-12-07T19:45:29;99997.97;;;-10.33;68.51
75617;BME280;64200;55.426;37.758;2022-12-07T19:50:32;99984.47;;;-10.42;68.76
75617;BME280;64200;55.426;37.758;2022-12-07T19:55:38;100008.91;;;-10.30;69.13
75617;BME280;64200;55.426;37.758;2022-12-07T20:00:39;100009.25;;;-10.40;68.64
75617;BME280;64200;55.426;37.758;2022-12-07T20:05:40;99996.41;;;-10.43;68.69
75617;BME280;64200;55.426;37.758;2022-12-07T20:10:40;99983.38;;;-10.50;69.66
75617;BME280;64200;55.426;37.758;2022-12-07T20:15:41;99991.63;;;-10.46;69.26
75617;BME280;64200;55.426;37.758;2022-12-07T20:20:43;100010.66;;;-10.43;69.11
75617;BME280;64200;55.426;37.758;2022-12-07T20:25:51;100037.28;;;-10.50;69.37
75617;BME280;64200;55.426;37.758;2022-12-07T20:30:52;99971.97;;;-10.64;69.74
75617;BME280;64200;55.426;37.758;2022-12-07T20:36:01;99983.38;;;-10.50;69.17
75617;BME280;64200;55.426;37.758;2022-12-07T20:41:06;99972.25;;;-10.57;69.62
75617;BME280;64200;55.426;37.758;2022-12-07T20:46:27;99971.16;;;-10.56;69.49
75617;BME280;64200;55.426;37.758;2022-12-07T20:51:28;99988.75;;;-10.50;69.35
75617;BME280;64200;55.426;37.758;2022-12-07T20:56:31;99991.44;;;-10.58;70.08
75617;BME280;64200;55.426;37.758;2022-12-07T21:01:32;99965.13;;;-10.62;68.89
75617;BME280;64200;55.426;37.758;2022-12-07T21:06:33;99977.97;;;-10.58;69.40
75617;BME280;64200;55.426;37.758;2022-12-07T21:11:34;99965.94;;;-10.61;69.46
75617;BME280;64200;55.426;37.758;2022-12-07T21:16:35;99967.03;;;-10.62;69.67
75617;BME280;64200;55.426;37.758;2022-12-07T21:21:35;99960.69;;;-10.66;70.24
75617;BME280;64200;55.426;37.758;2022-12-07T21:26:36;99997.97;;;-10.51;69.12
75617;BME280;64200;55.426;37.758;2022-12-07T21:31:38;99963.38;;;-10.57;69.53
75617;BME280;64200;55.426;37.758;2022-12-07T21:36:38;99928.34;;;-10.49;69.96
75617;BME280;64200;55.426;37.758;2022-12-07T21:41:39;99941.81;;;-10.49;70.20
75617;BME280;64200;55.426;37.758;2022-12-07T21:46:40;100016.34;;;-10.53;69.89
75617;BME280;64200;55.426;37.758;2022-12-07T21:51:42;99885.53;;;-10.59;69.95
75617;BME280;64200;55.426;37.758;2022-12-07T21:56:42;99948.66;;;-10.34;70.60
75617;BME280;64200;55.426;37.758;2022-12-07T22:01:44;99937.31;;;-10.18;70.60
75617;BME280;64200;55.426;37.758;2022-12-07T22:06:47;99975.41;;;-10.20;70.88
75617;BME280;64200;55.426;37.758;2022-12-07T22:11:47;99918.59;;;-10.06;70.55
75617;BME280;64200;55.426;37.758;2022-12-07T22:16:49;99900.34;;;-10.09;71.08
75617;BME280;64200;55.426;37.758;2022-12-07T22:21:49;99915.25;;;-9.94;70.81
75617;BME280;64200;55.426;37.758;2022-12-07T22:26:50;99914.00;;;-10.06;70.62
75617;BME280;64200;55.426;37.758;2022-12-07T22:31:50;99933.94;;;-9.89;70.59
75617;BME280;64200;55.426;37.758;2022-12-07T22:36:51;99917.94;;;-9.94;70.77
75617;BME280;64200;55.426;37.758;2022-12-07T22:41:52;99904.75;;;-9.87;70.62
75617;BME280;64200;55.426;37.758;2022-12-07T22:46:52;99899.34;;;-9.87;70.65
75617;BME280;64200;55.426;37.758;2022-12-07T22:51:53;99913.63;;;-9.86;71.11
75617;BME280;64200;55.426;37.758;2022-12-07T22:56:53;99879.00;;;-9.84;70.65
75617;BME280;64200;55.426;37.758;2022-12-07T23:01:54;99888.22;;;-9.77;71.00
75617;BME280;64200;55.426;37.758;2022-12-07T23:06:57;99889.31;;;-9.78;70.87
75617;BME280;64200;55.426;37.758;2022-12-07T23:11:57;99923.28;;;-9.77;70.74
75617;BME280;64200;55.426;37.758;2022-12-07T23:17:16;99876.44;;;-9.72;70.71
75617;BME280;64200;55.426;37.758;2022-12-07T23:22:17;99863.63;;;-9.84;70.60
75617;BME280;64200;55.426;37.758;2022-12-07T23:27:18;99908.00;;;-9.73;70.54
75617;BME280;64200;55.426;37.758;2022-12-07T23:32:18;99864.03;;;-9.73;70.43
75617;BME280;64200;55.426;37.758;2022-12-07T23:37:19;99842.63;;;-9.69;70.47
75617;BME280;64200;55.426;37.758;2022-12-07T23:42:19;99850.22;;;-9.72;71.34
75617;BME280;64200;55.426;37.758;2022-12-07T23:47:20;99852.88;;;-9.63;70.98
75617;BME280;64200;55.426;37.758;2022-12-07T23:52:21;99851.13;;;-9.59;70.37
75617;BME280;64200;55.426;37.758;2022-12-07T23:57:21;99878.75;;;-9.53;70.86
